sensor_id;sensor_type;location;lat;lon;timestamp;temperature;humidity
7588;DHT22;3835;48.850;8.938;2022-07-01T00:01:48;14.00;99.90
7588;DHT22;3835;48.850;8.938;2022-07-01T00:04:15;14.00;99.90
7588;DHT22;3835;48.850;8.938;2022-07-01T00:06:44;14.00;99.90
7588;DHT22;3835;48.850;8.938;2022-07-01T00:09:10;14.10;99.90
7588;DHT22;3835;48.850;8.938;2022-07-01T00:11:37;14.10;99.90
7588;DHT22;3835;48.850;8.938;2022-07-01T00:14:04;14.10;99.90
7588;DHT22;3835;48.850;8.938;2022-07-01T00:16:31;14.10;99.90
7588;DHT22;3835;48.850;8.938;2022-07-01T00:18:58;14.10;99.90
7588;DHT22;3835;48.850;8.938;2022-07-01T00:21:25;14.10;99.90
7588;DHT22;3835;48.850;8.938;2022-07-01T00:23:53;14.10;99.90
7588;DHT22;3835;48.850;8.938;2022-07-01T00:26:19;14.10;99.90
7588;DHT22;3835;48.850;8.938;2022-07-01T00:28:46;14.10;99.90
7588;DHT22;3835;48.850;8.938;2022-07-01T00:31:13;14.10;99.90
7588;DHT22;3835;48.850;8.938;2022-07-01T00:33:40;14.10;99.90
7588;DHT22;3835;48.850;8.938;2022-07-01T00:36:07;13.90;99.90
7588;DHT22;3835;48.850;8.938;2022-07-01T00:38:34;14.00;99.90
7588;DHT22;3835;48.850;8.938;2022-07-01T00:41:02;14.00;99.90
7588;DHT22;3835;48.850;8.938;2022-07-01T00:43:35;14.00;99.90
7588;DHT22;3835;48.850;8.938;2022-07-01T00:46:02;14.00;99.90
7588;DHT22;3835;48.850;8.938;2022-07-01T00:48:29;13.90;99.90
7588;DHT22;3835;48.850;8.938;2022-07-01T00:50:58;13.90;99.90
7588;DHT22;3835;48.850;8.938;2022-07-01T00:53:25;13.80;99.90
7588;DHT22;3835;48.850;8.938;2022-07-01T00:55:54;13.80;99.90
7588;DHT22;3835;48.850;8.938;2022-07-01T00:58:25;13.80;99.90
7588;DHT22;3835;48.850;8.938;2022-07-01T01:00:53;13.90;99.90
7588;DHT22;3835;48.850;8.938;2022-07-01T01:03:20;13.80;99.90
7588;DHT22;3835;48.850;8.938;2022-07-01T01:05:49;13.80;99.90
7588;DHT22;3835;48.850;8.938;2022-07-01T01:08:16;13.90;99.90
7588;DHT22;3835;48.850;8.938;2022-07-01T01:10:43;13.90;99.90
7588;DHT22;3835;48.850;8.938;2022-07-01T01:13:10;13.80;99.90
7588;DHT22;3835;48.850;8.938;2022-07-01T01:15:39;13.80;99.90
7588;DHT22;3835;48.850;8.938;2022-07-01T01:18:06;13.60;99.90
7588;DHT22;3835;48.850;8.938;2022-07-01T01:20:35;13.60;99.90
7588;DHT22;3835;48.850;8.938;2022-07-01T01:23:02;13.60;99.90
7588;DHT22;3835;48.850;8.938;2022-07-01T01:25:30;13.60;99.90
7588;DHT22;3835;48.850;8.938;2022-07-01T01:27:57;13.50;99.90
7588;DHT22;3835;48.850;8.938;2022-07-01T01:30:24;13.50;99.90
7588;DHT22;3835;48.850;8.938;2022-07-01T01:32:51;13.50;99.90
7588;DHT22;3835;48.850;8.938;2022-07-01T01:35:18;13.50;99.90
7588;DHT22;3835;48.850;8.938;2022-07-01T01:37:47;13.50;99.90
7588;DHT22;3835;48.850;8.938;2022-07-01T01:40:14;13.50;99.90
7588;DHT22;3835;48.850;8.938;2022-07-01T01:42:42;13.50;99.90
7588;DHT22;3835;48.850;8.938;2022-07-01T01:45:09;13.50;99.90
7588;DHT22;3835;48.850;8.938;2022-07-01T01:47:36;13.60;99.90
7588;DHT22;3835;48.850;8.938;2022-07-01T01:50:04;13.60;99.90
7588;DHT22;3835;48.850;8.938;2022-07-01T01:52:31;13.60;99.90
7588;DHT22;3835;48.850;8.938;2022-07-01T01:54:59;13.70;99.90
7588;DHT22;3835;48.850;8.938;2022-07-01T01:57:26;13.60;99.90
7588;DHT22;3835;48.850;8.938;2022-07-01T01:59:53;13.50;99.90
7588;DHT22;3835;48.850;8.938;2022-07-01T02:02:20;13.30;99.90
7588;DHT22;3835;48.850;8.938;2022-07-01T02:04:47;13.30;99.90
7588;DHT22;3835;48.850;8.938;2022-07-01T02:07:14;13.20;99.90
7588;DHT22;3835;48.850;8.938;2022-07-01T02:09:40;13.20;99.90
7588;DHT22;3835;48.850;8.938;2022-07-01T02:12:09;13.20;99.90
7588;DHT22;3835;48.850;8.938;2022-07-01T02:14:36;13.10;99.90
7588;DHT22;3835;48.850;8.938;2022-07-01T02:17:03;13.00;99.90
7588;DHT22;3835;48.850;8.938;2022-07-01T02:19:30;13.00;99.90
7588;DHT22;3835;48.850;8.938;2022-07-01T02:21:57;12.90;99.90
7588;DHT22;3835;48.850;8.938;2022-07-01T02:24:24;13.00;99.90
7588;DHT22;3835;48.850;8.938;2022-07-01T02:26:52;13.00;99.90
7588;DHT22;3835;48.850;8.938;2022-07-01T02:29:20;13.00;99.90
7588;DHT22;3835;48.850;8.938;2022-07-01T02:31:47;12.90;99.90
7588;DHT22;3835;48.850;8.938;2022-07-01T02:34:14;12.90;99.90
7588;DHT22;3835;48.850;8.938;2022-07-01T02:36:41;12.90;99.90
7588;DHT22;3835;48.850;8.938;2022-07-01T02:39:08;12.90;99.90
7588;DHT22;3835;48.850;8.938;2022-07-01T02:41:34;12.80;99.90
7588;DHT22;3835;48.850;8.938;2022-07-01T02:44:23;12.80;99.90
7588;DHT22;3835;48.850;8.938;2022-07-01T02:46:50;12.80;99.90
7588;DHT22;3835;48.850;8.938;2022-07-01T02:49:17;12.80;99.90
7588;DHT22;3835;48.850;8.938;2022-07-01T02:51:43;12.80;99.90
7588;DHT22;3835;48.850;8.938;2022-07-01T02:54:10;12.80;99.90
7588;DHT22;3835;48.850;8.938;2022-07-01T02:56:37;12.80;99.90
7588;DHT22;3835;48.850;8.938;2022-07-01T02:59:04;12.80;99.90
7588;DHT22;3835;48.850;8.938;2022-07-01T03:01:32;12.80;99.90
7588;DHT22;3835;48.850;8.938;2022-07-01T03:03:59;12.90;99.90
7588;DHT22;3835;48.850;8.938;2022-07-01T03:06:26;12.90;99.90
7588;DHT22;3835;48.850;8.938;2022-07-01T03:08:53;12.90;99.90
7588;DHT22;3835;48.850;8.938;2022-07-01T03:11:21;12.70;99.90
7588;DHT22;3835;48.850;8.938;2022-07-01T03:13:48;12.70;99.90
7588;DHT22;3835;48.850;8.938;2022-07-01T03:16:15;12.70;99.90
7588;DHT22;3835;48.850;8.938;2022-07-01T03:18:43;12.80;99.90
7588;DHT22;3835;48.850;8.938;2022-07-01T03:21:10;12.70;99.90
7588;DHT22;3835;48.850;8.938;2022-07-01T03:23:37;12.70;99.90
7588;DHT22;3835;48.850;8.938;2022-07-01T03:26:04;12.70;99.90
7588;DHT22;3835;48.850;8.938;2022-07-01T03:28:31;12.70;99.90
7588;DHT22;3835;48.850;8.938;2022-07-01T03:30:59;12.70;99.90
7588;DHT22;3835;48.850;8.938;2022-07-01T03:33:26;12.60;99.90
7588;DHT22;3835;48.850;8.938;2022-07-01T03:35:54;12.60;99.90
7588;DHT22;3835;48.850;8.938;2022-07-01T03:38:21;12.70;99.90
7588;DHT22;3835;48.850;8.938;2022-07-01T03:40:48;12.70;99.90
7588;DHT22;3835;48.850;8.938;2022-07-01T03:43:15;12.70;99.90
7588;DHT22;3835;48.850;8.938;2022-07-01T03:45:41;12.70;99.90
7588;DHT22;3835;48.850;8.938;2022-07-01T03:48:08;12.70;99.90
7588;DHT22;3835;48.850;8.938;2022-07-01T03:50:36;12.70;99.90
7588;DHT22;3835;48.850;8.938;2022-07-01T03:53:04;12.70;99.90
7588;DHT22;3835;48.850;8.938;2022-07-01T03:55:48;12.70;99.90
7588;DHT22;3835;48.850;8.938;2022-07-01T03:58:15;12.70;99.90
7588;DHT22;3835;48.850;8.938;2022-07-01T04:00:42;12.70;99.90
7588;DHT22;3835;48.850;8.938;2022-07-01T04:03:09;12.70;99.90
7588;DHT22;3835;48.850;8.938;2022-07-01T04:05:37;12.80;99.90
7588;DHT22;3835;48.850;8.938;2022-07-01T04:08:06;12.70;99.90
7588;DHT22;3835;48.850;8.938;2022-07-01T04:10:37;12.70;99.90
7588;DHT22;3835;48.850;8.938;2022-07-01T04:13:05;12.80;99.90
7588;DHT22;3835;48.850;8.938;2022-07-01T04:15:32;12.80;99.90
7588;DHT22;3835;48.850;8.938;2022-07-01T04:17:59;12.80;99.90
7588;DHT22;3835;48.850;8.938;2022-07-01T04:20:26;12.70;99.90
7588;DHT22;3835;48.850;8.938;2022-07-01T04:22:53;12.70;99.90
7588;DHT22;3835;48.850;8.938;2022-07-01T04:25:22;12.60;99.90
7588;DHT22;3835;48.850;8.938;2022-07-01T04:27:49;12.60;99.90
7588;DHT22;3835;48.850;8.938;2022-07-01T04:30:16;12.60;99.90
7588;DHT22;3835;48.850;8.938;2022-07-01T04:32:42;12.70;99.90
7588;DHT22;3835;48.850;8.938;2022-07-01T04:35:09;12.70;99.90
7588;DHT22;3835;48.850;8.938;2022-07-01T04:37:38;12.70;99.90
7588;DHT22;3835;48.850;8.938;2022-07-01T04:40:06;12.70;99.90
7588;DHT22;3835;48.850;8.938;2022-07-01T04:42:35;12.80;99.90
7588;DHT22;3835;48.850;8.938;2022-07-01T04:45:00;12.80;99.90
7588;DHT22;3835;48.850;8.938;2022-07-01T04:47:27;12.80;99.90
7588;DHT22;3835;48.850;8.938;2022-07-01T04:49:58;12.80;99.90
7588;DHT22;3835;48.850;8.938;2022-07-01T04:52:27;12.80;99.90
7588;DHT22;3835;48.850;8.938;2022-07-01T04:54:54;12.80;99.90
7588;DHT22;3835;48.850;8.938;2022-07-01T04:57:20;12.80;99.90
7588;DHT22;3835;48.850;8.938;2022-07-01T04:59:48;12.80;99.90
7588;DHT22;3835;48.850;8.938;2022-07-01T05:02:15;12.80;99.90
7588;DHT22;3835;48.850;8.938;2022-07-01T05:04:42;12.80;99.90
7588;DHT22;3835;48.850;8.938;2022-07-01T05:07:09;12.80;99.90
7588;DHT22;3835;48.850;8.938;2022-07-01T05:09:54;12.90;99.90
7588;DHT22;3835;48.850;8.938;2022-07-01T05:12:21;12.80;99.90
7588;DHT22;3835;48.850;8.938;2022-07-01T05:14:49;12.80;99.90
7588;DHT22;3835;48.850;8.938;2022-07-01T05:17:16;12.80;99.90
7588;DHT22;3835;48.850;8.938;2022-07-01T05:19:43;12.90;99.90
7588;DHT22;3835;48.850;8.938;2022-07-01T05:22:27;13.00;99.90
7588;DHT22;3835;48.850;8.938;2022-07-01T05:24:54;12.90;99.90
7588;DHT22;3835;48.850;8.938;2022-07-01T05:27:21;12.80;99.90
7588;DHT22;3835;48.850;8.938;2022-07-01T05:29:51;12.70;99.90
7588;DHT22;3835;48.850;8.938;2022-07-01T05:32:19;12.70;99.90
7588;DHT22;3835;48.850;8.938;2022-07-01T05:34:45;12.70;99.90
7588;DHT22;3835;48.850;8.938;2022-07-01T05:37:12;12.70;99.90
7588;DHT22;3835;48.850;8.938;2022-07-01T05:39:42;12.70;99.90
7588;DHT22;3835;48.850;8.938;2022-07-01T05:42:09;12.70;99.90
7588;DHT22;3835;48.850;8.938;2022-07-01T05:44:36;12.80;99.90
7588;DHT22;3835;48.850;8.938;2022-07-01T05:47:04;12.80;99.90
7588;DHT22;3835;48.850;8.938;2022-07-01T05:49:31;12.80;99.90
7588;DHT22;3835;48.850;8.938;2022-07-01T05:51:58;12.80;99.90
7588;DHT22;3835;48.850;8.938;2022-07-01T05:54:25;12.80;99.90
7588;DHT22;3835;48.850;8.938;2022-07-01T05:56:52;12.80;99.90
7588;DHT22;3835;48.850;8.938;2022-07-01T05:59:19;12.70;99.90
7588;DHT22;3835;48.850;8.938;2022-07-01T06:01:45;12.80;99.90
7588;DHT22;3835;48.850;8.938;2022-07-01T06:04:15;12.80;99.90
7588;DHT22;3835;48.850;8.938;2022-07-01T06:06:42;12.90;99.90
7588;DHT22;3835;48.850;8.938;2022-07-01T06:09:09;12.90;99.90
7588;DHT22;3835;48.850;8.938;2022-07-01T06:11:36;12.90;99.90
7588;DHT22;3835;48.850;8.938;2022-07-01T06:14:03;12.70;99.90
7588;DHT22;3835;48.850;8.938;2022-07-01T06:16:29;12.80;99.90
7588;DHT22;3835;48.850;8.938;2022-07-01T06:18:56;12.80;99.90
7588;DHT22;3835;48.850;8.938;2022-07-01T06:21:24;12.90;99.90
7588;DHT22;3835;48.850;8.938;2022-07-01T06:23:51;12.80;99.90
7588;DHT22;3835;48.850;8.938;2022-07-01T06:26:18;12.80;99.90
7588;DHT22;3835;48.850;8.938;2022-07-01T06:28:45;12.90;99.90
7588;DHT22;3835;48.850;8.938;2022-07-01T06:31:12;12.90;99.90
7588;DHT22;3835;48.850;8.938;2022-07-01T06:33:38;13.00;99.90
7588;DHT22;3835;48.850;8.938;2022-07-01T06:36:06;13.00;99.90
7588;DHT22;3835;48.850;8.938;2022-07-01T06:38:34;13.10;99.90
7588;DHT22;3835;48.850;8.938;2022-07-01T06:41:01;13.00;99.90
7588;DHT22;3835;48.850;8.938;2022-07-01T06:43:45;13.10;99.90
7588;DHT22;3835;48.850;8.938;2022-07-01T06:46:12;13.00;99.90
7588;DHT22;3835;48.850;8.938;2022-07-01T06:48:39;13.00;99.90
7588;DHT22;3835;48.850;8.938;2022-07-01T06:51:06;13.00;99.90
7588;DHT22;3835;48.850;8.938;2022-07-01T06:53:34;13.10;99.90
7588;DHT22;3835;48.850;8.938;2022-07-01T06:56:01;13.00;99.90
7588;DHT22;3835;48.850;8.938;2022-07-01T06:58:28;13.00;99.90
7588;DHT22;3835;48.850;8.938;2022-07-01T07:00:55;12.90;99.90
7588;DHT22;3835;48.850;8.938;2022-07-01T07:03:22;13.00;99.90
7588;DHT22;3835;48.850;8.938;2022-07-01T07:05:49;13.10;99.90
7588;DHT22;3835;48.850;8.938;2022-07-01T07:08:15;13.30;99.90
7588;DHT22;3835;48.850;8.938;2022-07-01T07:10:44;13.30;99.90
7588;DHT22;3835;48.850;8.938;2022-07-01T07:13:10;13.50;99.90
7588;DHT22;3835;48.850;8.938;2022-07-01T07:15:37;13.50;99.90
7588;DHT22;3835;48.850;8.938;2022-07-01T07:18:06;13.50;99.90
7588;DHT22;3835;48.850;8.938;2022-07-01T07:20:33;13.70;99.90
7588;DHT22;3835;48.850;8.938;2022-07-01T07:23:00;13.70;99.90
7588;DHT22;3835;48.850;8.938;2022-07-01T07:25:28;13.60;99.90
7588;DHT22;3835;48.850;8.938;2022-07-01T07:27:56;13.80;99.90
7588;DHT22;3835;48.850;8.938;2022-07-01T07:30:23;13.90;99.90
7588;DHT22;3835;48.850;8.938;2022-07-01T07:32:50;14.00;99.90
7588;DHT22;3835;48.850;8.938;2022-07-01T07:35:17;14.10;99.90
7588;DHT22;3835;48.850;8.938;2022-07-01T07:37:44;14.20;99.90
7588;DHT22;3835;48.850;8.938;2022-07-01T07:40:12;14.30;99.90
7588;DHT22;3835;48.850;8.938;2022-07-01T07:42:44;14.30;99.90
7588;DHT22;3835;48.850;8.938;2022-07-01T07:45:12;14.20;99.90
7588;DHT22;3835;48.850;8.938;2022-07-01T07:47:42;14.20;99.90
7588;DHT22;3835;48.850;8.938;2022-07-01T07:50:10;14.20;99.90
7588;DHT22;3835;48.850;8.938;2022-07-01T07:52:37;14.20;99.90
7588;DHT22;3835;48.850;8.938;2022-07-01T07:55:06;14.20;99.90
7588;DHT22;3835;48.850;8.938;2022-07-01T07:57:34;14.30;99.90
7588;DHT22;3835;48.850;8.938;2022-07-01T08:00:02;14.30;99.90
7588;DHT22;3835;48.850;8.938;2022-07-01T08:02:30;14.20;99.90
7588;DHT22;3835;48.850;8.938;2022-07-01T08:04:57;14.10;99.90
7588;DHT22;3835;48.850;8.938;2022-07-01T08:07:24;14.00;99.90
7588;DHT22;3835;48.850;8.938;2022-07-01T08:09:51;14.00;99.90
7588;DHT22;3835;48.850;8.938;2022-07-01T08:12:18;14.10;99.90
7588;DHT22;3835;48.850;8.938;2022-07-01T08:14:45;14.10;99.90
7588;DHT22;3835;48.850;8.938;2022-07-01T08:17:12;14.00;99.90
7588;DHT22;3835;48.850;8.938;2022-07-01T08:19:40;14.00;99.90
7588;DHT22;3835;48.850;8.938;2022-07-01T08:22:07;13.80;99.90
7588;DHT22;3835;48.850;8.938;2022-07-01T08:24:33;13.70;99.90
7588;DHT22;3835;48.850;8.938;2022-07-01T08:27:00;13.70;99.90
7588;DHT22;3835;48.850;8.938;2022-07-01T08:29:27;13.90;99.90
7588;DHT22;3835;48.850;8.938;2022-07-01T08:31:54;13.80;99.90
7588;DHT22;3835;48.850;8.938;2022-07-01T08:34:20;13.90;99.90
7588;DHT22;3835;48.850;8.938;2022-07-01T08:36:49;13.70;99.90
7588;DHT22;3835;48.850;8.938;2022-07-01T08:39:15;13.70;99.90
7588;DHT22;3835;48.850;8.938;2022-07-01T08:41:42;13.80;99.90
7588;DHT22;3835;48.850;8.938;2022-07-01T08:44:09;13.70;99.90
7588;DHT22;3835;48.850;8.938;2022-07-01T08:46:36;13.70;99.90
7588;DHT22;3835;48.850;8.938;2022-07-01T08:49:03;13.60;99.90
7588;DHT22;3835;48.850;8.938;2022-07-01T08:51:30;13.60;99.90
7588;DHT22;3835;48.850;8.938;2022-07-01T08:53:58;13.50;99.90
7588;DHT22;3835;48.850;8.938;2022-07-01T08:56:25;13.50;99.90
7588;DHT22;3835;48.850;8.938;2022-07-01T08:59:07;13.40;99.90
7588;DHT22;3835;48.850;8.938;2022-07-01T09:01:35;13.40;99.90
7588;DHT22;3835;48.850;8.938;2022-07-01T09:04:14;13.50;99.90
7588;DHT22;3835;48.850;8.938;2022-07-01T09:06:41;13.60;99.90
7588;DHT22;3835;48.850;8.938;2022-07-01T09:09:14;13.80;99.90
7588;DHT22;3835;48.850;8.938;2022-07-01T09:11:45;13.90;99.90
7588;DHT22;3835;48.850;8.938;2022-07-01T09:14:13;14.30;99.90
7588;DHT22;3835;48.850;8.938;2022-07-01T09:16:41;14.50;99.90
7588;DHT22;3835;48.850;8.938;2022-07-01T09:19:09;14.40;99.90
7588;DHT22;3835;48.850;8.938;2022-07-01T09:21:36;14.70;99.90
7588;DHT22;3835;48.850;8.938;2022-07-01T09:24:04;14.90;99.90
7588;DHT22;3835;48.850;8.938;2022-07-01T09:26:32;15.00;99.90
7588;DHT22;3835;48.850;8.938;2022-07-01T09:29:01;15.10;99.90
7588;DHT22;3835;48.850;8.938;2022-07-01T09:31:33;15.20;99.90
7588;DHT22;3835;48.850;8.938;2022-07-01T09:34:05;15.20;99.90
7588;DHT22;3835;48.850;8.938;2022-07-01T09:36:33;15.20;99.90
7588;DHT22;3835;48.850;8.938;2022-07-01T09:39:04;15.30;99.90
7588;DHT22;3835;48.850;8.938;2022-07-01T09:41:38;15.40;99.90
7588;DHT22;3835;48.850;8.938;2022-07-01T09:44:07;15.50;99.90
7588;DHT22;3835;48.850;8.938;2022-07-01T09:46:34;15.70;99.90
7588;DHT22;3835;48.850;8.938;2022-07-01T09:49:02;15.90;99.90
7588;DHT22;3835;48.850;8.938;2022-07-01T09:51:29;16.20;99.90
7588;DHT22;3835;48.850;8.938;2022-07-01T09:53:56;16.20;99.90
7588;DHT22;3835;48.850;8.938;2022-07-01T09:56:23;16.30;99.90
7588;DHT22;3835;48.850;8.938;2022-07-01T09:58:51;16.30;99.90
7588;DHT22;3835;48.850;8.938;2022-07-01T10:01:18;16.40;99.90
7588;DHT22;3835;48.850;8.938;2022-07-01T10:03:46;16.40;99.90
7588;DHT22;3835;48.850;8.938;2022-07-01T10:06:34;16.40;99.90
7588;DHT22;3835;48.850;8.938;2022-07-01T10:09:14;16.60;99.90
7588;DHT22;3835;48.850;8.938;2022-07-01T10:12:20;16.50;99.90
7588;DHT22;3835;48.850;8.938;2022-07-01T10:14:56;16.30;99.90
7588;DHT22;3835;48.850;8.938;2022-07-01T10:17:29;16.80;99.90
7588;DHT22;3835;48.850;8.938;2022-07-01T10:19:57;17.00;99.90
7588;DHT22;3835;48.850;8.938;2022-07-01T10:22:35;17.30;99.90
7588;DHT22;3835;48.850;8.938;2022-07-01T10:25:39;17.20;99.90
7588;DHT22;3835;48.850;8.938;2022-07-01T10:31:44;16.60;99.90
7588;DHT22;3835;48.850;8.938;2022-07-01T10:34:11;16.50;99.90
7588;DHT22;3835;48.850;8.938;2022-07-01T10:36:38;16.30;99.90
7588;DHT22;3835;48.850;8.938;2022-07-01T10:39:17;16.40;99.90
7588;DHT22;3835;48.850;8.938;2022-07-01T10:41:58;17.00;99.90
7588;DHT22;3835;48.850;8.938;2022-07-01T10:44:27;17.60;99.90
7588;DHT22;3835;48.850;8.938;2022-07-01T10:47:01;18.20;99.90
7588;DHT22;3835;48.850;8.938;2022-07-01T10:50:05;18.40;99.90
7588;DHT22;3835;48.850;8.938;2022-07-01T10:52:33;18.80;99.90
7588;DHT22;3835;48.850;8.938;2022-07-01T10:55:01;18.80;99.90
7588;DHT22;3835;48.850;8.938;2022-07-01T10:57:31;19.30;99.90
7588;DHT22;3835;48.850;8.938;2022-07-01T11:00:32;19.40;99.90
7588;DHT22;3835;48.850;8.938;2022-07-01T11:03:13;18.80;99.90
7588;DHT22;3835;48.850;8.938;2022-07-01T11:05:41;19.10;99.90
7588;DHT22;3835;48.850;8.938;2022-07-01T11:08:08;19.90;99.90
7588;DHT22;3835;48.850;8.938;2022-07-01T11:10:35;20.30;99.90
7588;DHT22;3835;48.850;8.938;2022-07-01T11:13:03;19.90;99.90
7588;DHT22;3835;48.850;8.938;2022-07-01T11:15:30;19.60;99.90
7588;DHT22;3835;48.850;8.938;2022-07-01T11:17:58;18.90;99.90
7588;DHT22;3835;48.850;8.938;2022-07-01T11:20:30;18.20;99.90
7588;DHT22;3835;48.850;8.938;2022-07-01T11:22:57;17.70;99.90
7588;DHT22;3835;48.850;8.938;2022-07-01T11:25:24;16.90;99.90
7588;DHT22;3835;48.850;8.938;2022-07-01T11:27:52;16.30;99.90
7588;DHT22;3835;48.850;8.938;2022-07-01T11:30:20;16.30;99.90
7588;DHT22;3835;48.850;8.938;2022-07-01T11:32:48;16.60;99.90
7588;DHT22;3835;48.850;8.938;2022-07-01T11:35:17;17.00;99.90
7588;DHT22;3835;48.850;8.938;2022-07-01T11:38:07;17.20;99.90
7588;DHT22;3835;48.850;8.938;2022-07-01T11:40:53;17.30;99.90
7588;DHT22;3835;48.850;8.938;2022-07-01T11:43:21;17.90;99.90
7588;DHT22;3835;48.850;8.938;2022-07-01T11:45:49;17.90;99.90
7588;DHT22;3835;48.850;8.938;2022-07-01T11:48:28;18.10;99.90
7588;DHT22;3835;48.850;8.938;2022-07-01T11:50:56;18.30;99.90
7588;DHT22;3835;48.850;8.938;2022-07-01T11:53:25;18.70;99.90
7588;DHT22;3835;48.850;8.938;2022-07-01T11:55:52;19.20;99.90
7588;DHT22;3835;48.850;8.938;2022-07-01T11:58:19;19.60;99.90
7588;DHT22;3835;48.850;8.938;2022-07-01T12:00:46;19.70;99.90
7588;DHT22;3835;48.850;8.938;2022-07-01T12:03:12;19.50;99.90
7588;DHT22;3835;48.850;8.938;2022-07-01T12:05:39;19.40;99.90
7588;DHT22;3835;48.850;8.938;2022-07-01T12:08:06;19.20;99.90
7588;DHT22;3835;48.850;8.938;2022-07-01T12:10:35;18.30;99.90
7588;DHT22;3835;48.850;8.938;2022-07-01T12:13:22;17.90;99.90
7588;DHT22;3835;48.850;8.938;2022-07-01T12:15:49;17.20;99.90
7588;DHT22;3835;48.850;8.938;2022-07-01T12:18:16;17.30;99.90
7588;DHT22;3835;48.850;8.938;2022-07-01T12:20:48;17.30;99.90
7588;DHT22;3835;48.850;8.938;2022-07-01T12:23:16;17.40;99.90
7588;DHT22;3835;48.850;8.938;2022-07-01T12:25:48;17.80;99.90
7588;DHT22;3835;48.850;8.938;2022-07-01T12:28:29;18.20;99.90
7588;DHT22;3835;48.850;8.938;2022-07-01T12:31:05;18.20;99.90
7588;DHT22;3835;48.850;8.938;2022-07-01T12:33:37;18.40;99.90
7588;DHT22;3835;48.850;8.938;2022-07-01T12:36:05;18.90;99.90
7588;DHT22;3835;48.850;8.938;2022-07-01T12:38:33;19.30;99.90
7588;DHT22;3835;48.850;8.938;2022-07-01T12:41:02;19.20;99.90
7588;DHT22;3835;48.850;8.938;2022-07-01T12:43:30;19.30;99.90
7588;DHT22;3835;48.850;8.938;2022-07-01T12:46:03;19.30;99.90
7588;DHT22;3835;48.850;8.938;2022-07-01T12:48:47;19.00;99.90
7588;DHT22;3835;48.850;8.938;2022-07-01T12:51:14;19.20;99.90
7588;DHT22;3835;48.850;8.938;2022-07-01T12:53:41;19.50;99.90
7588;DHT22;3835;48.850;8.938;2022-07-01T12:56:21;19.70;99.90
7588;DHT22;3835;48.850;8.938;2022-07-01T12:58:49;19.90;99.90
7588;DHT22;3835;48.850;8.938;2022-07-01T13:01:17;20.30;99.90
7588;DHT22;3835;48.850;8.938;2022-07-01T13:03:44;20.60;99.90
7588;DHT22;3835;48.850;8.938;2022-07-01T13:06:11;20.80;99.90
7588;DHT22;3835;48.850;8.938;2022-07-01T13:08:59;20.80;99.90
7588;DHT22;3835;48.850;8.938;2022-07-01T13:11:51;20.40;99.90
7588;DHT22;3835;48.850;8.938;2022-07-01T13:14:18;20.30;99.90
7588;DHT22;3835;48.850;8.938;2022-07-01T13:16:45;19.90;99.90
7588;DHT22;3835;48.850;8.938;2022-07-01T13:19:12;19.80;99.90
7588;DHT22;3835;48.850;8.938;2022-07-01T13:21:38;19.60;99.90
7588;DHT22;3835;48.850;8.938;2022-07-01T13:24:05;19.80;99.90
7588;DHT22;3835;48.850;8.938;2022-07-01T13:26:32;19.90;99.90
7588;DHT22;3835;48.850;8.938;2022-07-01T13:29:01;20.30;99.90
7588;DHT22;3835;48.850;8.938;2022-07-01T13:31:29;20.90;99.90
7588;DHT22;3835;48.850;8.938;2022-07-01T13:33:56;21.20;99.90
7588;DHT22;3835;48.850;8.938;2022-07-01T13:36:23;20.80;99.90
7588;DHT22;3835;48.850;8.938;2022-07-01T13:38:49;20.60;99.90
7588;DHT22;3835;48.850;8.938;2022-07-01T13:41:16;20.80;99.90
7588;DHT22;3835;48.850;8.938;2022-07-01T13:43:43;20.80;99.90
7588;DHT22;3835;48.850;8.938;2022-07-01T13:49:31;20.60;99.90
7588;DHT22;3835;48.850;8.938;2022-07-01T13:51:58;20.90;99.90
7588;DHT22;3835;48.850;8.938;2022-07-01T13:54:25;20.80;99.90
7588;DHT22;3835;48.850;8.938;2022-07-01T13:56:52;20.90;99.90
7588;DHT22;3835;48.850;8.938;2022-07-01T13:59:18;21.10;99.90
7588;DHT22;3835;48.850;8.938;2022-07-01T14:01:45;21.40;99.90
7588;DHT22;3835;48.850;8.938;2022-07-01T14:04:16;21.40;99.90
7588;DHT22;3835;48.850;8.938;2022-07-01T14:06:48;21.30;99.90
7588;DHT22;3835;48.850;8.938;2022-07-01T14:09:39;21.10;99.90
7588;DHT22;3835;48.850;8.938;2022-07-01T14:12:20;20.70;99.90
7588;DHT22;3835;48.850;8.938;2022-07-01T14:14:48;20.50;99.90
7588;DHT22;3835;48.850;8.938;2022-07-01T14:17:16;20.50;99.90
7588;DHT22;3835;48.850;8.938;2022-07-01T14:19:45;20.60;99.90
7588;DHT22;3835;48.850;8.938;2022-07-01T14:22:14;20.80;99.90
7588;DHT22;3835;48.850;8.938;2022-07-01T14:24:41;21.10;99.90
7588;DHT22;3835;48.850;8.938;2022-07-01T14:27:07;21.30;99.90
7588;DHT22;3835;48.850;8.938;2022-07-01T14:29:34;21.30;99.90
7588;DHT22;3835;48.850;8.938;2022-07-01T14:32:01;21.10;99.90
7588;DHT22;3835;48.850;8.938;2022-07-01T14:34:28;20.50;99.90
7588;DHT22;3835;48.850;8.938;2022-07-01T14:36:55;20.30;99.90
7588;DHT22;3835;48.850;8.938;2022-07-01T14:39:23;20.20;99.90
7588;DHT22;3835;48.850;8.938;2022-07-01T14:41:50;20.10;99.90
7588;DHT22;3835;48.850;8.938;2022-07-01T14:44:17;19.70;99.90
7588;DHT22;3835;48.850;8.938;2022-07-01T14:46:44;19.50;99.90
7588;DHT22;3835;48.850;8.938;2022-07-01T14:49:11;19.50;99.90
7588;DHT22;3835;48.850;8.938;2022-07-01T14:51:40;19.60;99.90
7588;DHT22;3835;48.850;8.938;2022-07-01T14:54:06;19.70;99.90
7588;DHT22;3835;48.850;8.938;2022-07-01T14:56:34;19.70;99.90
7588;DHT22;3835;48.850;8.938;2022-07-01T14:59:01;19.80;99.90
7588;DHT22;3835;48.850;8.938;2022-07-01T15:01:28;19.60;99.90
7588;DHT22;3835;48.850;8.938;2022-07-01T15:03:55;19.40;99.90
7588;DHT22;3835;48.850;8.938;2022-07-01T15:06:22;19.50;99.90
7588;DHT22;3835;48.850;8.938;2022-07-01T15:08:49;19.60;99.90
7588;DHT22;3835;48.850;8.938;2022-07-01T15:11:19;19.90;99.90
7588;DHT22;3835;48.850;8.938;2022-07-01T15:13:47;20.10;99.90
7588;DHT22;3835;48.850;8.938;2022-07-01T15:16:14;20.00;99.90
7588;DHT22;3835;48.850;8.938;2022-07-01T15:18:41;19.90;99.90
7588;DHT22;3835;48.850;8.938;2022-07-01T15:21:07;19.70;99.90
7588;DHT22;3835;48.850;8.938;2022-07-01T15:26:47;20.20;99.90
7588;DHT22;3835;48.850;8.938;2022-07-01T15:29:16;20.60;99.90
7588;DHT22;3835;48.850;8.938;2022-07-01T15:31:43;20.90;99.90
7588;DHT22;3835;48.850;8.938;2022-07-01T15:34:09;20.50;99.90
7588;DHT22;3835;48.850;8.938;2022-07-01T15:36:39;20.40;99.90
7588;DHT22;3835;48.850;8.938;2022-07-01T15:39:05;20.60;99.90
7588;DHT22;3835;48.850;8.938;2022-07-01T15:41:32;20.60;99.90
7588;DHT22;3835;48.850;8.938;2022-07-01T15:43:59;20.20;99.90
7588;DHT22;3835;48.850;8.938;2022-07-01T15:46:29;20.00;99.90
7588;DHT22;3835;48.850;8.938;2022-07-01T15:48:56;19.80;99.90
7588;DHT22;3835;48.850;8.938;2022-07-01T15:51:23;19.60;99.90
7588;DHT22;3835;48.850;8.938;2022-07-01T15:53:51;19.40;99.90
7588;DHT22;3835;48.850;8.938;2022-07-01T15:56:18;19.50;99.90
7588;DHT22;3835;48.850;8.938;2022-07-01T15:58:45;20.10;99.90
7588;DHT22;3835;48.850;8.938;2022-07-01T16:01:12;20.90;99.90
7588;DHT22;3835;48.850;8.938;2022-07-01T16:03:44;21.30;99.90
7588;DHT22;3835;48.850;8.938;2022-07-01T16:06:14;21.50;99.90
7588;DHT22;3835;48.850;8.938;2022-07-01T16:08:42;21.20;99.90
7588;DHT22;3835;48.850;8.938;2022-07-01T16:11:18;21.00;99.90
7588;DHT22;3835;48.850;8.938;2022-07-01T16:13:47;20.70;99.90
7588;DHT22;3835;48.850;8.938;2022-07-01T16:16:19;20.40;99.90
7588;DHT22;3835;48.850;8.938;2022-07-01T16:18:48;20.30;99.90
7588;DHT22;3835;48.850;8.938;2022-07-01T16:21:16;20.50;99.90
7588;DHT22;3835;48.850;8.938;2022-07-01T16:23:46;20.70;99.90